Time;durP1;ratioP1;P1;durP2;ratioP2;P2;SDS_P1;SDS_P2;PMS_P1;PMS_P2;Temp;Humidity;BMP_temperature;BMP_pressure;BME280_temperature;BME280_humidity;BME280_pressure;Samples;Min_cycle;Max_cycle;Signal;HPM_P1;HPM_P2
2021/10/08 00:00:38;;;;;;;16.77;14.90;;;;;;;;;;6260540;22;20019;-79
2021/10/08 00:03:20;;;;;;;;;;;;;;;;;;;;;
2021/10/08 00:06:06;;;;;;;18.85;16.23;;;;;;;;;;6276903;22;20103;-79
2021/10/08 00:08:42;;;;;;;;;;;;;;;;;;;;;
2021/10/08 00:11:11;;;;;;;16.45;14.50;;;;;;;;;;6276812;22;20083;-79
2021/10/08 00:13:40;;;;;;;16.40;14.70;;;;;;;;;;6277002;22;20083;-79
2021/10/08 00:16:06;;;;;;;17.98;15.90;;;;;;;;;;6276631;22;20082;-79
2021/10/08 00:18:41;;;;;;;17.08;15.43;;;;;;;;;;6277087;22;20007;-79
2021/10/08 00:21:08;;;;;;;17.92;16.05;;;;;;;;;;6276719;22;20007;-79
2021/10/08 00:23:34;;;;;;;17.85;15.85;;;;;;;;;;6277004;22;19992;-79
2021/10/08 00:26:00;;;;;;;19.35;17.27;;;;;;;;;;6249534;22;20015;-79
2021/10/08 00:28:29;;;;;;;18.55;16.35;;;;;;;;;;6276702;22;20004;-79
2021/10/08 00:30:59;;;;;;;21.95;17.13;;;;;;;;;;6249513;22;20011;-78
2021/10/08 00:33:53;;;;;;;17.40;15.40;;;;;;;;;;6276793;22;20333;-78
2021/10/08 00:36:34;;;;;;;19.48;16.02;;;;;;;;;;6276932;22;20028;-78
2021/10/08 00:42:12;;;;;;;22.00;16.67;;;;;;;;;;6228962;22;20011;-79
2021/10/08 00:48:07;;;;;;;17.92;16.02;;;;;;;;;;6260707;22;20015;-79
2021/10/08 00:59:51;;;;;;;;;;;;;;;;;;;;;
2021/10/08 01:02:32;;;;;;;;;;;;;;;;;;;;;
2021/10/08 01:08:23;;;;;;;20.45;17.70;;;;;;;;;;6276096;22;20053;-78
2021/10/08 01:11:20;;;;;;;;;;;;;;;;;;;;;
2021/10/08 01:14:01;;;;;;;;;;;;;;;;;;;;;
2021/10/08 01:17:00;;;;;;;19.25;16.90;;;;;;;;;;6276494;22;20090;-78
2021/10/08 01:19:51;;;;;;;22.13;17.13;;;;;;;;;;6262859;22;20042;-78
2021/10/08 01:22:30;;;;;;;;;;;;;;;;;;;;;
2021/10/08 01:25:29;;;;;;;;;;;;;;;;;;;;;
2021/10/08 01:28:26;;;;;;;;;;;;;;;;;;;;;
2021/10/08 01:31:11;;;;;;;;;;;;;;;;;;;;;
2021/10/08 01:36:56;;;;;;;;;;;;;;;;;;;;;
2021/10/08 01:39:48;;;;;;;21.50;19.17;;;;;;;;;;6275962;22;20070;-78
2021/10/08 01:45:03;;;;;;;19.67;16.80;;;;;;;;;;6228396;22;20010;-78
2021/10/08 01:47:51;;;;;;;19.58;17.15;;;;;;;;;;6275897;22;19996;-78
2021/10/08 01:50:49;;;;;;;21.02;17.98;;;;;;;;;;6275883;22;20078;-78
2021/10/08 01:53:43;;;;;;;;;;;;;;;;;;;;;
2021/10/08 01:56:13;;;;;;;20.40;18.33;;;;;;;;;;6271207;22;20082;-78
2021/10/08 01:58:42;;;;;;;20.80;18.40;;;;;;;;;;6275744;22;20000;-78
2021/10/08 02:01:41;;;;;;;;;;;;;;;;;;;;;
2021/10/08 02:04:09;;;;;;;20.45;18.08;;;;;;;;;;6275582;22;20082;-79
2021/10/08 02:06:53;;;;;;;22.50;18.80;;;;;;;;;;6275970;22;20470;-78
2021/10/08 02:09:44;;;;;;;21.30;18.13;;;;;;;;;;6275697;22;20000;-78
2021/10/08 02:12:34;;;;;;;17.52;15.73;;;;;;;;;;6275770;22;20011;-78
2021/10/08 02:15:13;;;;;;;;;;;;;;;;;;;;;
2021/10/08 02:17:59;;;;;;;18.40;16.45;;;;;;;;;;6275724;22;20083;-78
2021/10/08 02:20:30;;;;;;;18.20;15.32;;;;;;;;;;6275858;22;20469;-78
2021/10/08 02:28:54;;;;;;;19.00;15.95;;;;;;;;;;6259161;22;20003;-79
2021/10/08 02:31:41;;;;;;;17.52;15.68;;;;;;;;;;6275639;22;20000;-78
2021/10/08 02:34:19;;;;;;;;;;;;;;;;;;;;;
2021/10/08 02:40:02;;;;;;;18.38;16.33;;;;;;;;;;6259629;22;20091;-78
2021/10/08 02:42:38;;;;;;;;;;;;;;;;;;;;;
2021/10/08 02:45:15;;;;;;;;;;;;;;;;;;;;;
2021/10/08 02:47:47;;;;;;;19.05;16.75;;;;;;;;;;6275171;22;20079;-78
2021/10/08 02:50:36;;;;;;;21.17;18.23;;;;;;;;;;6275435;22;20000;-77
2021/10/08 02:53:11;;;;;;;18.38;16.05;;;;;;;;;;6274096;22;20320;-78
2021/10/08 02:56:08;;;;;;;17.58;15.73;;;;;;;;;;6275502;22;20008;-78
2021/10/08 02:58:36;;;;;;;17.77;15.80;;;;;;;;;;6248155;22;20011;-78
2021/10/08 03:04:25;;;;;;;18.33;15.82;;;;;;;;;;6258719;22;20427;-78
2021/10/08 03:09:49;;;;;;;20.08;16.67;;;;;;;;;;6259170;22;20004;-78
2021/10/08 03:12:26;;;;;;;;;;;;;;;;;;;;;
2021/10/08 03:18:01;;;;;;;;;;;;;;;;;;;;;
2021/10/08 03:20:32;;;;;;;17.73;15.70;;;;;;;;;;6277608;22;20079;-77
2021/10/08 03:23:02;;;;;;;16.05;14.25;;;;;;;;;;6277239;22;20075;-78
2021/10/08 03:25:39;;;;;;;16.42;14.68;;;;;;;;;;6277420;22;20477;-78
2021/10/08 03:28:33;;;;;;;;;;;;;;;;;;;;;
2021/10/08 03:31:04;;;;;;;18.93;15.87;;;;;;;;;;6277592;22;20083;-78
2021/10/08 03:36:34;;;;;;;17.98;15.82;;;;;;;;;;6260909;22;20110;-78
2021/10/08 03:39:00;;;;;;;18.30;16.02;;;;;;;;;;6277365;22;20049;-78
2021/10/08 03:41:29;;;;;;;18.95;16.98;;;;;;;;;;6277619;22;20423;-78
2021/10/08 03:44:00;;;;;;;20.13;17.20;;;;;;;;;;6277234;22;20122;-78
2021/10/08 03:46:28;;;;;;;21.92;18.83;;;;;;;;;;6277406;22;20004;-78
2021/10/08 03:51:27;;;;;;;19.40;17.13;;;;;;;;;;6283002;22;20022;-78
2021/10/08 03:53:53;;;;;;;20.55;17.05;;;;;;;;;;6249830;22;20459;-78
2021/10/08 03:56:19;;;;;;;21.00;17.42;;;;;;;;;;6277134;22;19996;-78
2021/10/08 03:58:47;;;;;;;20.95;17.65;;;;;;;;;;6276606;22;20035;-77
2021/10/08 04:01:13;;;;;;;19.85;17.35;;;;;;;;;;6277036;22;20057;-77
2021/10/08 04:03:39;;;;;;;20.92;18.05;;;;;;;;;;6276676;22;19999;-77
2021/10/08 04:06:05;;;;;;;20.95;18.73;;;;;;;;;;6277054;22;20070;-77
2021/10/08 04:08:34;;;;;;;21.52;16.67;;;;;;;;;;6249536;22;20378;-77
2021/10/08 04:11:00;;;;;;;22.67;17.65;;;;;;;;;;6276867;22;20027;-76
2021/10/08 04:13:26;;;;;;;27.55;21.50;;;;;;;;;;6276578;22;20043;-77
2021/10/08 04:15:52;;;;;;;26.60;21.65;;;;;;;;;;6276674;22;20331;-77
2021/10/08 04:18:18;;;;;;;25.08;20.92;;;;;;;;;;6276718;22;19999;-78
2021/10/08 04:20:45;;;;;;;30.45;22.73;;;;;;;;;;6276534;22;20007;-78
2021/10/08 04:23:11;;;;;;;24.05;20.02;;;;;;;;;;6276758;22;20007;-77
2021/10/08 04:25:37;;;;;;;26.15;20.58;;;;;;;;;;6276795;22;20003;-80
2021/10/08 04:28:04;;;;;;;25.55;20.23;;;;;;;;;;6276604;22;20121;-81
2021/10/08 04:30:30;;;;;;;27.40;20.42;;;;;;;;;;6276672;22;20006;-80
2021/10/08 04:32:56;;;;;;;27.67;20.42;;;;;;;;;;6276473;22;20014;-78
2021/10/08 04:35:22;;;;;;;29.05;20.02;;;;;;;;;;6276541;22;20069;-80
2021/10/08 04:37:48;;;;;;;22.52;19.42;;;;;;;;;;6276562;22;20454;-79
2021/10/08 04:40:14;;;;;;;24.52;19.58;;;;;;;;;;6276536;22;20000;-80
2021/10/08 04:42:41;;;;;;;28.83;21.08;;;;;;;;;;6276579;22;20003;-81
2021/10/08 04:45:07;;;;;;;24.98;19.77;;;;;;;;;;6276651;22;20003;-79
2021/10/08 04:47:33;;;;;;;24.98;21.25;;;;;;;;;;6276735;22;20004;-76
2021/10/08 04:49:59;;;;;;;22.48;18.77;;;;;;;;;;6276187;22;20007;-79
2021/10/08 04:52:25;;;;;;;22.05;18.58;;;;;;;;;;6277096;22;20106;-78
2021/10/08 04:54:52;;;;;;;23.27;20.05;;;;;;;;;;6275958;22;20020;-79
2021/10/08 04:57:19;;;;;;;28.10;20.50;;;;;;;;;;6276391;22;20346;-82
2021/10/08 04:59:45;;;;;;;24.05;20.42;;;;;;;;;;6276492;22;20010;-81
2021/10/08 05:02:11;;;;;;;32.75;29.20;;;;;;;;;;6276502;22;20034;-80
2021/10/08 05:04:37;;;;;;;23.75;19.40;;;;;;;;;;6275928;22;20000;-78
2021/10/08 05:07:04;;;;;;;21.15;18.00;;;;;;;;;;6276115;22;20075;-80
2021/10/08 05:09:32;;;;;;;23.45;19.45;;;;;;;;;;6275966;22;20452;-79
2021/10/08 05:11:58;;;;;;;22.88;19.77;;;;;;;;;;6276077;22;19996;-79
2021/10/08 05:14:24;;;;;;;26.27;22.23;;;;;;;;;;6276016;22;20011;-80
2021/10/08 05:16:51;;;;;;;25.13;20.77;;;;;;;;;;6276076;22;20004;-79
2021/10/08 05:19:17;;;;;;;22.48;19.23;;;;;;;;;;6275924;22;20003;-81
2021/10/08 05:21:43;;;;;;;24.10;19.85;;;;;;;;;;6247280;22;20000;-78
2021/10/08 05:24:09;;;;;;;26.17;21.20;;;;;;;;;;6275159;22;20006;-80
2021/10/08 05:26:35;;;;;;;25.88;21.50;;;;;;;;;;6274330;22;20327;-80
2021/10/08 05:29:01;;;;;;;22.23;19.17;;;;;;;;;;6274186;22;19999;-81
2021/10/08 05:31:27;;;;;;;23.45;20.45;;;;;;;;;;6274752;22;20008;-78
2021/10/08 05:33:53;;;;;;;29.05;21.77;;;;;;;;;;6275723;22;20081;-78
2021/10/08 05:36:19;;;;;;;26.13;21.27;;;;;;;;;;6276129;22;20087;-80
2021/10/08 05:38:46;;;;;;;25.13;20.58;;;;;;;;;;6275715;22;20272;-81
2021/10/08 05:41:12;;;;;;;25.30;21.13;;;;;;;;;;6274790;22;20035;-82
2021/10/08 05:43:38;;;;;;;25.67;20.08;;;;;;;;;;6274555;22;20316;-78
2021/10/08 05:46:04;;;;;;;23.80;20.90;;;;;;;;;;6275335;22;20416;-80
2021/10/08 05:48:30;;;;;;;32.70;25.00;;;;;;;;;;6275631;22;20027;-79
2021/10/08 05:50:56;;;;;;;47.42;35.97;;;;;;;;;;6276177;22;20514;-79
2021/10/08 05:53:22;;;;;;;26.90;22.38;;;;;;;;;;6274850;22;20034;-77
2021/10/08 05:55:48;;;;;;;26.98;23.05;;;;;;;;;;6275633;22;20058;-77
2021/10/08 05:58:14;;;;;;;26.58;21.13;;;;;;;;;;6274364;22;20000;-77
2021/10/08 06:00:43;;;;;;;25.48;21.92;;;;;;;;;;6274889;22;20004;-77
2021/10/08 06:03:09;;;;;;;26.88;20.83;;;;;;;;;;6268513;22;19999;-78
2021/10/08 06:05:36;;;;;;;31.52;25.20;;;;;;;;;;6273042;22;20022;-78
2021/10/08 06:08:03;;;;;;;28.25;25.08;;;;;;;;;;6274887;22;20127;-77
2021/10/08 06:10:29;;;;;;;29.55;22.80;;;;;;;;;;6274426;22;20035;-77
2021/10/08 06:12:55;;;;;;;27.88;24.83;;;;;;;;;;6275284;22;20023;-79
2021/10/08 06:15:21;;;;;;;30.92;25.95;;;;;;;;;;6274622;22;20090;-78
2021/10/08 06:17:48;;;;;;;30.20;24.00;;;;;;;;;;6274417;22;20007;-77
2021/10/08 06:20:14;;;;;;;28.73;22.65;;;;;;;;;;6274459;22;20027;-77
2021/10/08 06:22:40;;;;;;;25.38;20.45;;;;;;;;;;6274545;22;20027;-78
2021/10/08 06:25:08;;;;;;;40.30;31.38;;;;;;;;;;6274785;22;20021;-78
2021/10/08 06:27:34;;;;;;;34.17;26.45;;;;;;;;;;6247340;22;20010;-77
2021/10/08 06:30:00;;;;;;;24.48;21.63;;;;;;;;;;6275064;22;19999;-76
2021/10/08 06:32:26;;;;;;;27.45;21.98;;;;;;;;;;6274578;22;20011;-77
2021/10/08 06:34:53;;;;;;;23.45;20.90;;;;;;;;;;6275831;22;20015;-76
2021/10/08 06:37:21;;;;;;;53.35;42.10;;;;;;;;;;6274440;22;20057;-78
2021/10/08 06:39:47;;;;;;;40.92;32.00;;;;;;;;;;6274753;22;20023;-77
2021/10/08 06:42:13;;;;;;;30.65;23.92;;;;;;;;;;6274271;22;20028;-79
2021/10/08 06:44:40;;;;;;;28.02;23.65;;;;;;;;;;6274776;22;20004;-79
2021/10/08 06:47:06;;;;;;;34.10;26.23;;;;;;;;;;6274919;22;20007;-77
2021/10/08 06:49:33;;;;;;;31.48;28.15;;;;;;;;;;6274742;22;20010;-77
2021/10/08 06:51:59;;;;;;;32.90;25.60;;;;;;;;;;6274056;22;20083;-76
2021/10/08 06:54:25;;;;;;;24.85;22.00;;;;;;;;;;6273883;22;20074;-78
2021/10/08 06:56:51;;;;;;;27.13;23.85;;;;;;;;;;6274274;22;20423;-77
2021/10/08 06:59:17;;;;;;;30.65;25.02;;;;;;;;;;6274354;22;20034;-79
2021/10/08 07:01:44;;;;;;;32.63;24.02;;;;;;;;;;6274733;22;20075;-78
2021/10/08 07:04:10;;;;;;;27.33;22.13;;;;;;;;;;6274573;22;20006;-76
2021/10/08 07:06:36;;;;;;;28.42;22.15;;;;;;;;;;6274322;22;20086;-77
2021/10/08 07:09:03;;;;;;;33.10;24.23;;;;;;;;;;6274497;22;20003;-79
2021/10/08 07:11:29;;;;;;;24.17;20.33;;;;;;;;;;6274174;22;20334;-78
2021/10/08 07:13:55;;;;;;;23.02;18.95;;;;;;;;;;6274857;22;20008;-79
2021/10/08 07:16:21;;;;;;;22.63;18.63;;;;;;;;;;6274486;22;20008;-79
2021/10/08 07:18:55;;;;;;;25.40;19.38;;;;;;;;;;6274500;22;20000;-78
2021/10/08 07:21:22;;;;;;;23.05;18.38;;;;;;;;;;6272364;22;19999;-79
2021/10/08 07:23:51;;;;;;;25.23;20.95;;;;;;;;;;6273679;22;19996;-76
2021/10/08 07:26:18;;;;;;;46.13;29.35;;;;;;;;;;6274002;22;20000;-77
2021/10/08 07:28:44;;;;;;;38.10;25.40;;;;;;;;;;6274170;22;20011;-78
2021/10/08 07:31:11;;;;;;;33.13;25.40;;;;;;;;;;6273432;22;20070;-78
2021/10/08 07:33:37;;;;;;;22.20;18.77;;;;;;;;;;6273904;22;20018;-77
2021/10/08 07:36:04;;;;;;;18.73;15.10;;;;;;;;;;6274568;22;20023;-77
2021/10/08 07:38:30;;;;;;;19.10;16.65;;;;;;;;;;6246712;22;20072;-77
2021/10/08 07:40:57;;;;;;;19.05;16.95;;;;;;;;;;6274349;22;20107;-77
2021/10/08 07:43:26;;;;;;;22.77;18.38;;;;;;;;;;6273972;22;20008;-77
2021/10/08 07:45:52;;;;;;;20.42;16.00;;;;;;;;;;6273856;22;19999;-77
2021/10/08 07:48:18;;;;;;;19.58;17.02;;;;;;;;;;6274557;22;20022;-79
2021/10/08 07:50:44;;;;;;;19.05;15.45;;;;;;;;;;6274138;22;20008;-77
2021/10/08 07:53:10;;;;;;;24.38;18.05;;;;;;;;;;6273176;22;20004;-78
2021/10/08 07:55:36;;;;;;;17.33;15.38;;;;;;;;;;6273983;22;20026;-79
2021/10/08 07:58:03;;;;;;;20.85;18.52;;;;;;;;;;6274854;22;20423;-77
2021/10/08 08:00:29;;;;;;;32.25;22.85;;;;;;;;;;6274033;22;20331;-78
2021/10/08 08:02:58;;;;;;;34.63;25.10;;;;;;;;;;6274267;22;20364;-78
2021/10/08 08:05:24;;;;;;;27.10;21.08;;;;;;;;;;6276580;22;20007;-77
2021/10/08 08:07:50;;;;;;;46.90;40.33;;;;;;;;;;6275546;22;20006;-78
2021/10/08 08:10:16;;;;;;;25.55;19.30;;;;;;;;;;6276063;22;20031;-78
2021/10/08 08:12:43;;;;;;;16.17;12.55;;;;;;;;;;6275730;22;20035;-76
2021/10/08 08:15:09;;;;;;;19.52;16.42;;;;;;;;;;6275426;22;20018;-78
2021/10/08 08:17:35;;;;;;;11.85;10.55;;;;;;;;;;6276263;22;20007;-77
2021/10/08 08:20:02;;;;;;;17.98;12.95;;;;;;;;;;6276190;22;20008;-76
2021/10/08 08:22:28;;;;;;;39.92;35.72;;;;;;;;;;6275715;22;20007;-76
2021/10/08 08:24:54;;;;;;;37.53;31.65;;;;;;;;;;6275845;22;20427;-76
2021/10/08 08:27:23;;;;;;;17.98;15.00;;;;;;;;;;6249336;22;20007;-76
2021/10/08 08:29:49;;;;;;;13.80;12.40;;;;;;;;;;6274877;22;20309;-79
2021/10/08 08:32:15;;;;;;;10.82;9.70;;;;;;;;;;6276224;22;20027;-78
2021/10/08 08:34:42;;;;;;;12.32;10.43;;;;;;;;;;6276178;22;20035;-78
2021/10/08 08:37:08;;;;;;;13.15;10.77;;;;;;;;;;6275136;22;20000;-77
2021/10/08 08:39:38;;;;;;;12.38;10.85;;;;;;;;;;6275590;22;20328;-79
2021/10/08 08:42:04;;;;;;;14.70;11.63;;;;;;;;;;6274930;22;20130;-78
2021/10/08 08:44:30;;;;;;;11.27;10.07;;;;;;;;;;6274054;22;20011;-79
2021/10/08 08:46:59;;;;;;;11.80;9.88;;;;;;;;;;6275122;22;20031;-81
2021/10/08 08:49:26;;;;;;;12.73;10.18;;;;;;;;;;6275722;22;20000;-79
2021/10/08 08:51:53;;;;;;;11.25;7.93;;;;;;;;;;6247925;22;20102;-81
2021/10/08 08:54:19;;;;;;;13.60;8.63;;;;;;;;;;6275179;22;20020;-79
2021/10/08 08:56:45;;;;;;;10.50;8.70;;;;;;;;;;6275051;22;20435;-78
2021/10/08 08:59:13;;;;;;;8.18;7.38;;;;;;;;;;6275591;22;20058;-79
2021/10/08 09:01:58;;;;;;;9.70;7.95;;;;;;;;;;6274842;22;20076;-78
2021/10/08 09:04:28;;;;;;;11.07;8.85;;;;;;;;;;6275399;22;20454;-78
2021/10/08 09:06:54;;;;;;;11.70;8.95;;;;;;;;;;6275656;22;20004;-78
2021/10/08 09:09:21;;;;;;;9.68;8.63;;;;;;;;;;6275251;22;20053;-79
2021/10/08 09:11:48;;;;;;;8.75;6.82;;;;;;;;;;6271930;22;20007;-79
2021/10/08 09:14:25;;;;;;;12.55;10.13;;;;;;;;;;6274808;22;20095;-79
2021/10/08 09:17:10;;;;;;;8.75;7.85;;;;;;;;;;6274951;22;20026;-78
2021/10/08 09:19:55;;;;;;;8.80;6.97;;;;;;;;;;6275304;22;20015;-77
2021/10/08 09:22:25;;;;;;;7.75;6.95;;;;;;;;;;6273964;22;20080;-77
2021/10/08 09:24:51;;;;;;;6.10;5.50;;;;;;;;;;6275178;22;20078;-78
2021/10/08 09:27:19;;;;;;;6.65;5.97;;;;;;;;;;6274941;22;20075;-79
2021/10/08 09:29:49;;;;;;;6.90;5.32;;;;;;;;;;6274551;22;20079;-79
2021/10/08 09:32:17;;;;;;;7.00;6.20;;;;;;;;;;6274981;22;20090;-78
2021/10/08 09:34:44;;;;;;;6.88;5.78;;;;;;;;;;6273645;22;20010;-78
2021/10/08 09:37:12;;;;;;;7.60;6.75;;;;;;;;;;6273883;22;20004;-78
2021/10/08 09:39:39;;;;;;;12.15;8.95;;;;;;;;;;6275003;22;20007;-77
2021/10/08 09:42:11;;;;;;;9.55;8.57;;;;;;;;;;6274843;22;20054;-81
2021/10/08 09:44:45;;;;;;;15.52;11.82;;;;;;;;;;6275420;22;20363;-78
2021/10/08 09:47:15;;;;;;;21.50;19.30;;;;;;;;;;6275642;22;20090;-79
2021/10/08 09:49:42;;;;;;;15.18;13.15;;;;;;;;;;6275315;22;20382;-80
2021/10/08 09:52:26;;;;;;;9.30;8.35;;;;;;;;;;6275415;22;20319;-78
2021/10/08 09:55:21;;;;;;;16.85;15.07;;;;;;;;;;6240899;23;20082;-78
2021/10/08 09:57:48;;;;;;;8.50;7.68;;;;;;;;;;6241680;23;20004;-79
2021/10/08 10:00:34;;;;;;;10.52;9.43;;;;;;;;;;6242068;23;20428;-78
2021/10/08 10:03:01;;;;;;;7.75;6.78;;;;;;;;;;6243734;22;20034;-79
2021/10/08 10:05:28;;;;;;;8.27;6.70;;;;;;;;;;6243347;22;20435;-78
2021/10/08 10:07:55;;;;;;;8.60;6.45;;;;;;;;;;6244178;23;20443;-79
2021/10/08 10:10:22;;;;;;;8.13;7.10;;;;;;;;;;6243670;22;20004;-81
2021/10/08 10:12:49;;;;;;;12.23;10.50;;;;;;;;;;6243872;22;20067;-79
2021/10/08 10:15:15;;;;;;;14.20;12.10;;;;;;;;;;6243963;22;20012;-78
2021/10/08 10:17:42;;;;;;;18.42;16.52;;;;;;;;;;6244297;22;20054;-80
2021/10/08 10:20:12;;;;;;;16.83;14.52;;;;;;;;;;6244137;22;20034;-80
2021/10/08 10:22:38;;;;;;;8.52;7.03;;;;;;;;;;6244365;22;20105;-78
2021/10/08 10:25:05;;;;;;;7.72;6.78;;;;;;;;;;6244241;22;20009;-79
2021/10/08 10:27:32;;;;;;;8.77;7.75;;;;;;;;;;6242296;23;20004;-77
2021/10/08 10:29:58;;;;;;;7.65;6.75;;;;;;;;;;6244102;22;20031;-78
2021/10/08 10:32:24;;;;;;;10.90;8.38;;;;;;;;;;6242189;22;20008;-79
2021/10/08 10:34:51;;;;;;;6.63;5.85;;;;;;;;;;6242260;22;20020;-78
2021/10/08 10:37:39;;;;;;;8.32;7.32;;;;;;;;;;6243699;22;20015;-80
2021/10/08 10:40:16;;;;;;;7.88;7.07;;;;;;;;;;6244084;22;20083;-79
2021/10/08 10:42:42;;;;;;;6.10;5.50;;;;;;;;;;6243567;22;20046;-78
2021/10/08 10:45:14;;;;;;;7.53;5.85;;;;;;;;;;6243623;22;20007;-78
2021/10/08 10:47:41;;;;;;;7.80;6.72;;;;;;;;;;6242730;23;20451;-79
2021/10/08 10:50:40;;;;;;;8.88;7.60;;;;;;;;;;6242121;23;20008;-79
2021/10/08 10:53:06;;;;;;;9.00;8.05;;;;;;;;;;6244440;22;20012;-77
2021/10/08 10:55:33;;;;;;;8.65;7.68;;;;;;;;;;6273881;22;20022;-78
2021/10/08 10:58:00;;;;;;;12.40;11.10;;;;;;;;;;6273614;22;20082;-79
2021/10/08 11:00:45;;;;;;;12.45;10.55;;;;;;;;;;6273290;22;20437;-81
2021/10/08 11:03:12;;;;;;;10.60;9.50;;;;;;;;;;6269258;22;20007;-80
2021/10/08 11:05:39;;;;;;;8.32;6.75;;;;;;;;;;6273829;22;20015;-78
2021/10/08 11:08:13;;;;;;;7.22;6.40;;;;;;;;;;6274721;22;20003;-78
2021/10/08 11:10:40;;;;;;;62.83;44.37;;;;;;;;;;6274372;22;20000;-78
2021/10/08 11:13:32;;;;;;;20.52;15.20;;;;;;;;;;6247430;22;20012;-81
2021/10/08 11:15:59;;;;;;;10.35;9.30;;;;;;;;;;6274179;22;20019;-77
2021/10/08 11:18:55;;;;;;;29.90;26.08;;;;;;;;;;6274899;22;20308;-80
2021/10/08 11:21:31;;;;;;;17.50;15.30;;;;;;;;;;6244226;22;20133;-77
2021/10/08 11:24:03;;;;;;;47.45;42.58;;;;;;;;;;6273621;22;20008;-79
2021/10/08 11:26:30;;;;;;;30.13;26.80;;;;;;;;;;6273821;22;20428;-78
2021/10/08 11:28:58;;;;;;;20.70;18.58;;;;;;;;;;6274175;22;20004;-78
2021/10/08 11:31:24;;;;;;;14.40;11.43;;;;;;;;;;6273326;22;20022;-79
2021/10/08 11:33:53;;;;;;;11.80;10.60;;;;;;;;;;6274027;22;20007;-80
2021/10/08 11:36:29;;;;;;;14.13;12.63;;;;;;;;;;6273531;22;20392;-80
2021/10/08 11:39:17;;;;;;;15.90;13.57;;;;;;;;;;6248408;22;20014;-79
2021/10/08 11:41:54;;;;;;;17.67;15.07;;;;;;;;;;6275462;22;20011;-78
2021/10/08 11:52:34;;;;;;;19.45;15.27;;;;;;;;;;6276489;22;20069;-77
2021/10/08 11:55:05;;;;;;;12.02;10.73;;;;;;;;;;6276305;22;20399;-77
2021/10/08 11:57:45;;;;;;;10.95;8.40;;;;;;;;;;6275947;22;20023;-78
2021/10/08 12:00:12;;;;;;;9.43;7.90;;;;;;;;;;6249164;22;20008;-76
2021/10/08 12:02:38;;;;;;;8.70;7.80;;;;;;;;;;6276593;22;20027;-76
2021/10/08 12:05:09;;;;;;;9.40;8.30;;;;;;;;;;6275356;22;20027;-77
2021/10/08 12:07:52;;;;;;;6.65;5.93;;;;;;;;;;6272549;22;20004;-76
2021/10/08 12:10:18;;;;;;;7.93;7.13;;;;;;;;;;6273181;22;20082;-79
2021/10/08 12:12:52;;;;;;;8.95;7.78;;;;;;;;;;6271904;22;20004;-77
2021/10/08 12:15:25;;;;;;;9.50;8.32;;;;;;;;;;6277225;22;20008;-77
2021/10/08 12:17:52;;;;;;;6.85;6.15;;;;;;;;;;6277173;22;20004;-78
2021/10/08 12:20:26;;;;;;;7.30;6.55;;;;;;;;;;6276754;22;20010;-77
2021/10/08 12:23:11;;;;;;;10.20;8.20;;;;;;;;;;6277302;22;19999;-78
2021/10/08 12:25:37;;;;;;;9.27;8.15;;;;;;;;;;6277291;22;20000;-79
2021/10/08 12:28:03;;;;;;;7.07;6.38;;;;;;;;;;6276709;22;20000;-77
2021/10/08 12:30:29;;;;;;;6.35;5.75;;;;;;;;;;6277327;22;20014;-78
2021/10/08 12:33:14;;;;;;;6.25;5.65;;;;;;;;;;6277017;22;20008;-79
2021/10/08 12:35:40;;;;;;;7.05;5.82;;;;;;;;;;6276683;22;20432;-71
2021/10/08 12:38:06;;;;;;;7.55;6.85;;;;;;;;;;6277187;22;20004;-78
2021/10/08 12:40:41;;;;;;;8.30;7.45;;;;;;;;;;6277245;22;20004;-78
2021/10/08 12:43:19;;;;;;;10.68;9.27;;;;;;;;;;6276525;22;20008;-80
2021/10/08 12:45:46;;;;;;;10.57;8.43;;;;;;;;;;6277133;22;19999;-78
2021/10/08 12:48:19;;;;;;;7.72;6.68;;;;;;;;;;6277699;22;20015;-78
2021/10/08 12:50:45;;;;;;;7.95;6.78;;;;;;;;;;6275894;22;20007;-79
2021/10/08 12:53:18;;;;;;;8.68;6.50;;;;;;;;;;6276751;22;20010;-79
2021/10/08 12:55:46;;;;;;;6.82;5.25;;;;;;;;;;6276805;22;20007;-81
2021/10/08 12:58:24;;;;;;;7.82;5.95;;;;;;;;;;6276460;22;20082;-79
2021/10/08 13:00:54;;;;;;;5.30;4.80;;;;;;;;;;6276477;22;20007;-80
2021/10/08 13:03:39;;;;;;;6.18;5.50;;;;;;;;;;6276544;22;20027;-79
2021/10/08 13:06:05;;;;;;;7.43;6.70;;;;;;;;;;6276472;22;20019;-81
2021/10/08 13:08:33;;;;;;;7.75;5.22;;;;;;;;;;6276568;22;20030;-80
2021/10/08 13:11:04;;;;;;;6.07;5.40;;;;;;;;;;6276467;22;20011;-77
2021/10/08 13:13:34;;;;;;;6.45;4.57;;;;;;;;;;6249193;22;20038;-81
2021/10/08 13:16:01;;;;;;;5.45;4.50;;;;;;;;;;6276230;22;20359;-78
2021/10/08 13:18:40;;;;;;;4.78;4.32;;;;;;;;;;6276614;22;20012;-78
2021/10/08 13:21:06;;;;;;;4.28;3.67;;;;;;;;;;6276311;22;20004;-79
2021/10/08 13:23:32;;;;;;;4.97;4.40;;;;;;;;;;6276250;22;20000;-79
2021/10/08 13:25:58;;;;;;;5.03;3.83;;;;;;;;;;6276252;22;19999;-81
2021/10/08 13:28:25;;;;;;;5.18;4.32;;;;;;;;;;6276399;22;20038;-79
2021/10/08 13:30:55;;;;;;;4.10;3.65;;;;;;;;;;6275913;22;20082;-80
2021/10/08 13:33:22;;;;;;;3.95;3.55;;;;;;;;;;6276359;22;20850;-77
2021/10/08 13:35:52;;;;;;;6.63;4.85;;;;;;;;;;6276114;22;20015;-81
2021/10/08 13:38:19;;;;;;;6.63;4.78;;;;;;;;;;6276105;22;20028;-77
2021/10/08 13:40:45;;;;;;;3.83;3.40;;;;;;;;;;6275774;22;20000;-80
2021/10/08 13:43:11;;;;;;;21.02;16.75;;;;;;;;;;6276135;22;19999;-80
2021/10/08 13:45:38;;;;;;;5.30;3.95;;;;;;;;;;6275301;22;20079;-78
2021/10/08 13:48:04;;;;;;;3.92;3.17;;;;;;;;;;6275870;22;20362;-80
2021/10/08 13:50:31;;;;;;;3.00;2.47;;;;;;;;;;6275788;22;20102;-80
2021/10/08 13:52:57;;;;;;;5.30;3.40;;;;;;;;;;6275722;22;20030;-80
2021/10/08 13:55:23;;;;;;;4.85;4.00;;;;;;;;;;6275930;22;20376;-78
2021/10/08 13:57:49;;;;;;;5.68;4.60;;;;;;;;;;6275691;22;20034;-78
2021/10/08 14:00:16;;;;;;;3.85;3.45;;;;;;;;;;6276045;22;20328;-79
2021/10/08 14:03:07;;;;;;;4.47;3.88;;;;;;;;;;6275868;22;20035;-78
2021/10/08 14:10:29;;;;;;;4.90;4.32;;;;;;;;;;6286299;22;20007;-78
2021/10/08 14:12:56;;;;;;;4.97;4.50;;;;;;;;;;6276049;22;20006;-77
2021/10/08 14:15:25;;;;;;;4.95;4.47;;;;;;;;;;6275890;22;20018;-79
2021/10/08 14:17:51;;;;;;;5.18;4.68;;;;;;;;;;6276147;22;20004;-78
2021/10/08 14:20:19;;;;;;;6.95;5.47;;;;;;;;;;6275887;22;20332;-79
2021/10/08 14:22:45;;;;;;;6.57;5.97;;;;;;;;;;6275463;22;20004;-79
2021/10/08 14:25:12;;;;;;;7.70;6.32;;;;;;;;;;6275932;22;20084;-78
2021/10/08 14:27:39;;;;;;;7.25;6.47;;;;;;;;;;6275620;22;20034;-78
2021/10/08 14:30:06;;;;;;;8.15;6.90;;;;;;;;;;6275911;22;20003;-79
2021/10/08 14:32:32;;;;;;;8.43;7.45;;;;;;;;;;6275455;22;20075;-78
2021/10/08 14:35:00;;;;;;;7.57;6.75;;;;;;;;;;6275751;22;20007;-79
2021/10/08 14:37:27;;;;;;;11.82;10.02;;;;;;;;;;6275609;22;20010;-78
2021/10/08 14:39:53;;;;;;;6.35;5.63;;;;;;;;;;6275593;22;20004;-78
2021/10/08 14:42:19;;;;;;;5.55;4.90;;;;;;;;;;6275788;22;20057;-79
2021/10/08 14:44:45;;;;;;;7.45;6.78;;;;;;;;;;6275633;22;20426;-78
2021/10/08 14:47:11;;;;;;;5.07;4.57;;;;;;;;;;6275760;22;20004;-79
2021/10/08 14:49:37;;;;;;;6.00;5.35;;;;;;;;;;6275190;22;20000;-78
2021/10/08 14:52:05;;;;;;;5.80;5.15;;;;;;;;;;6275889;22;20007;-78
2021/10/08 14:54:47;;;;;;;6.32;5.13;;;;;;;;;;6275075;22;20015;-78
2021/10/08 14:59:58;;;;;;;5.53;4.90;;;;;;;;;;6275414;22;20381;-77
2021/10/08 15:02:26;;;;;;;7.32;5.43;;;;;;;;;;6275055;22;20327;-79
2021/10/08 15:04:53;;;;;;;7.35;5.80;;;;;;;;;;6275240;22;20000;-79
2021/10/08 15:07:19;;;;;;;7.68;5.75;;;;;;;;;;6275012;22;20332;-78
2021/10/08 15:09:45;;;;;;;6.75;5.70;;;;;;;;;;6275437;22;20732;-78
2021/10/08 15:12:11;;;;;;;5.80;5.07;;;;;;;;;;6274851;22;20004;-77
2021/10/08 15:14:37;;;;;;;6.25;5.68;;;;;;;;;;6274749;22;20015;-77
2021/10/08 15:17:04;;;;;;;4.95;4.45;;;;;;;;;;6274955;22;20008;-79
2021/10/08 15:19:30;;;;;;;7.10;5.60;;;;;;;;;;6275198;22;20003;-79
2021/10/08 15:21:59;;;;;;;6.53;5.80;;;;;;;;;;6275357;22;20007;-78
2021/10/08 15:24:26;;;;;;;7.40;6.53;;;;;;;;;;6275113;22;20004;-77
2021/10/08 15:26:52;;;;;;;12.25;10.80;;;;;;;;;;6275511;22;20022;-79
2021/10/08 15:29:18;;;;;;;9.80;8.63;;;;;;;;;;6274970;22;20374;-78
2021/10/08 15:31:45;;;;;;;9.65;8.75;;;;;;;;;;6275351;22;20003;-78
2021/10/08 15:34:11;;;;;;;10.70;9.63;;;;;;;;;;6275226;22;20381;-78
2021/10/08 15:36:37;;;;;;;15.50;12.75;;;;;;;;;;6274940;22;20129;-78
2021/10/08 15:39:04;;;;;;;15.35;12.40;;;;;;;;;;6275481;22;20130;-79
2021/10/08 15:41:32;;;;;;;10.30;9.30;;;;;;;;;;6275172;22;20065;-77
2021/10/08 15:43:59;;;;;;;9.55;8.55;;;;;;;;;;6275151;22;20078;-78
2021/10/08 15:46:25;;;;;;;8.35;7.55;;;;;;;;;;6275054;22;20004;-79
2021/10/08 15:48:51;;;;;;;7.45;6.00;;;;;;;;;;6275107;22;20428;-77
2021/10/08 15:51:17;;;;;;;7.65;6.85;;;;;;;;;;6275281;22;20392;-78
2021/10/08 15:53:44;;;;;;;6.50;5.57;;;;;;;;;;6275056;22;20012;-78
2021/10/08 15:56:10;;;;;;;6.32;5.72;;;;;;;;;;6275223;22;20010;-78
2021/10/08 15:58:36;;;;;;;5.72;5.22;;;;;;;;;;6274925;22;20015;-79
2021/10/08 16:01:02;;;;;;;7.35;6.65;;;;;;;;;;6275198;22;20478;-77
2021/10/08 16:03:28;;;;;;;14.15;11.55;;;;;;;;;;6274896;22;20000;-77
2021/10/08 16:05:55;;;;;;;8.85;7.95;;;;;;;;;;6275375;22;20429;-79
2021/10/08 16:08:21;;;;;;;6.60;5.93;;;;;;;;;;6274955;22;20000;-78